Time;durP1;ratioP1;P1;durP2;ratioP2;P2;SDS_P1;SDS_P2;PMS_P1;PMS_P2;Temp;Humidity;BMP_temperature;BMP_pressure;BME280_temperature;BME280_humidity;BME280_pressure;Samples;Min_cycle;Max_cycle;Signal;HPM_P1;HPM_P2
2021/08/08 00:01:04;;;;;;;0.50;0.50;;;20.50;69.40;;;;;;5020060;28;20189;-75
2021/08/08 00:03:30;;;;;;;0.40;0.40;;;20.40;69.00;;;;;;5023347;28;20282;-75
2021/08/08 00:05:56;;;;;;;0.40;0.40;;;20.40;69.20;;;;;;5028376;28;20180;-74
2021/08/08 00:08:27;;;;;;;1.77;0.40;;;20.30;69.50;;;;;;5025013;28;20192;-74
2021/08/08 00:10:53;;;;;;;0.68;0.60;;;20.30;69.50;;;;;;5024759;28;20206;-75
2021/08/08 00:13:19;;;;;;;0.40;0.40;;;20.20;69.50;;;;;;5024512;28;20192;-75
2021/08/08 00:15:46;;;;;;;0.45;0.45;;;20.20;70.10;;;;;;5022894;28;20654;-74
2021/08/08 00:18:11;;;;;;;0.32;0.32;;;20.20;69.60;;;;;;5023007;28;20177;-74
2021/08/08 00:20:37;;;;;;;0.50;0.50;;;20.20;69.90;;;;;;5017319;28;20695;-75
2021/08/08 00:23:04;;;;;;;0.50;0.50;;;20.20;69.90;;;;;;5020150;28;20242;-75
2021/08/08 00:25:30;;;;;;;2.75;0.50;;;20.20;70.10;;;;;;5018374;28;20567;-74
2021/08/08 00:27:57;;;;;;;0.40;0.40;;;20.10;70.00;;;;;;5022157;28;20192;-75
2021/08/08 00:30:23;;;;;;;0.50;0.50;;;20.10;70.10;;;;;;5024177;28;20184;-74
2021/08/08 00:32:49;;;;;;;0.40;0.40;;;20.10;70.40;;;;;;5029985;28;20708;-75
2021/08/08 00:35:14;;;;;;;1.55;0.40;;;20.10;70.60;;;;;;5027425;28;20622;-74
2021/08/08 00:37:44;;;;;;;1.10;0.50;;;20.00;70.40;;;;;;5025913;28;20214;-75
2021/08/08 00:40:12;;;;;;;0.63;0.63;;;20.00;70.40;;;;;;5019896;28;20196;-74
2021/08/08 00:42:38;;;;;;;0.45;0.45;;;20.00;70.70;;;;;;5030388;28;20180;-74
2021/08/08 00:45:05;;;;;;;0.47;0.47;;;20.00;70.90;;;;;;5029310;28;20204;-75
2021/08/08 00:47:31;;;;;;;2.05;0.68;;;19.90;70.70;;;;;;5027810;28;20187;-74
2021/08/08 00:49:57;;;;;;;0.50;0.50;;;19.90;71.20;;;;;;5023378;28;20235;-74
2021/08/08 00:52:23;;;;;;;1.00;1.00;;;19.90;71.00;;;;;;5026419;28;21663;-74
2021/08/08 00:54:48;;;;;;;0.60;0.60;;;19.90;71.30;;;;;;5027541;28;20711;-73
2021/08/08 00:57:14;;;;;;;0.60;0.60;;;19.90;71.40;;;;;;5029016;28;20188;-75
2021/08/08 00:59:40;;;;;;;0.88;0.88;;;19.90;71.40;;;;;;5027791;28;20219;-74
2021/08/08 01:02:06;;;;;;;0.77;0.77;;;19.80;71.30;;;;;;5027033;28;20200;-75
2021/08/08 01:04:39;;;;;;;3.17;0.80;;;19.80;71.60;;;;;;5029553;28;20624;-73
2021/08/08 01:07:37;;;;;;;1.70;0.60;;;19.80;71.50;;;;;;5030804;28;20188;-73
2021/08/08 01:10:04;;;;;;;2.67;0.70;;;19.70;72.70;;;;;;4989982;28;20231;-74
2021/08/08 01:12:31;;;;;;;0.75;0.75;;;19.70;71.30;;;;;;4994291;28;20637;-74
2021/08/08 01:14:58;;;;;;;0.65;0.65;;;19.60;71.60;;;;;;5003404;28;20197;-74
2021/08/08 01:17:25;;;;;;;0.90;0.73;;;19.60;71.50;;;;;;5005976;28;20185;-74
2021/08/08 01:19:58;;;;;;;0.68;0.60;;;19.60;71.70;;;;;;5003058;28;20189;-75
2021/08/08 01:22:28;;;;;;;0.60;0.60;;;19.60;71.50;;;;;;5007329;28;20196;-74
2021/08/08 01:24:58;;;;;;;0.50;0.50;;;19.50;71.30;;;;;;5005552;28;20185;-74
2021/08/08 01:27:25;;;;;;;0.80;0.80;;;19.50;72.10;;;;;;4988636;28;20743;-74
2021/08/08 01:29:53;;;;;;;0.73;0.73;;;19.50;71.80;;;;;;5005651;28;20195;-75
2021/08/08 01:32:19;;;;;;;0.80;0.80;;;19.40;71.60;;;;;;4992115;28;21065;-75
2021/08/08 01:34:45;;;;;;;0.75;0.75;;;19.40;71.90;;;;;;4998524;28;20181;-73
2021/08/08 01:37:11;;;;;;;0.60;0.60;;;19.40;71.80;;;;;;5006029;28;20192;-74
2021/08/08 01:39:39;;;;;;;0.60;0.60;;;19.30;72.20;;;;;;4999915;28;20193;-75
2021/08/08 01:42:09;;;;;;;0.70;0.70;;;19.30;71.70;;;;;;5004938;28;20217;-73
2021/08/08 01:44:41;;;;;;;4.88;0.70;;;19.30;72.20;;;;;;5006070;28;20192;-75
2021/08/08 01:47:10;;;;;;;0.88;0.88;;;19.30;72.00;;;;;;5011359;28;20207;-75
2021/08/08 01:49:36;;;;;;;0.70;0.70;;;19.20;71.90;;;;;;5022717;28;20193;-72
2021/08/08 01:52:03;;;;;;;0.70;0.70;;;19.20;72.20;;;;;;5026897;28;20975;-74
2021/08/08 01:54:29;;;;;;;0.70;0.70;;;19.20;72.00;;;;;;5014861;28;20181;-73
2021/08/08 01:56:56;;;;;;;0.65;0.52;;;19.20;72.20;;;;;;5027556;28;20204;-73
2021/08/08 01:59:22;;;;;;;2.30;0.70;;;19.20;72.00;;;;;;5028143;28;20179;-74
2021/08/08 02:01:47;;;;;;;0.50;0.50;;;19.10;72.10;;;;;;5013346;28;20192;-75
2021/08/08 02:04:15;;;;;;;0.80;0.80;;;19.10;72.40;;;;;;5027390;28;20627;-75
2021/08/08 02:06:41;;;;;;;1.27;0.90;;;19.10;72.10;;;;;;5026172;28;20230;-75
2021/08/08 02:09:07;;;;;;;0.50;0.50;;;19.10;72.40;;;;;;5016185;28;20205;-75
2021/08/08 02:11:33;;;;;;;0.70;0.70;;;19.00;72.30;;;;;;5016722;28;20290;-74
2021/08/08 02:13:59;;;;;;;0.60;0.60;;;19.00;72.50;;;;;;5021361;28;20192;-75
2021/08/08 02:16:24;;;;;;;0.50;0.50;;;19.00;72.60;;;;;;5027682;28;20176;-73
2021/08/08 02:18:50;;;;;;;1.88;0.60;;;18.90;72.90;;;;;;5023609;28;20180;-73
2021/08/08 02:21:16;;;;;;;0.50;0.50;;;18.90;73.00;;;;;;5028859;28;20181;-74
2021/08/08 02:23:41;;;;;;;0.65;0.65;;;18.80;73.30;;;;;;5027453;28;20187;-73
2021/08/08 02:26:07;;;;;;;0.77;0.77;;;18.80;73.50;;;;;;5022813;28;20215;-73
2021/08/08 02:28:32;;;;;;;3.67;0.90;;;18.80;73.80;;;;;;5014381;28;20189;-73
2021/08/08 02:30:58;;;;;;;0.70;0.70;;;18.80;73.80;;;;;;5028441;28;20184;-74
2021/08/08 02:33:24;;;;;;;0.52;0.52;;;18.80;73.80;;;;;;5024341;28;20192;-74
2021/08/08 02:35:49;;;;;;;0.70;0.70;;;18.70;74.00;;;;;;5018009;28;20192;-74
2021/08/08 02:38:15;;;;;;;0.70;0.70;;;18.70;74.30;;;;;;5020060;28;20195;-75
2021/08/08 02:40:41;;;;;;;0.70;0.70;;;18.70;73.90;;;;;;5009195;28;20616;-75
2021/08/08 02:43:06;;;;;;;0.93;0.80;;;18.60;74.00;;;;;;5011054;28;20204;-75
2021/08/08 02:45:32;;;;;;;0.55;0.55;;;18.60;74.00;;;;;;5028425;28;20188;-74
2021/08/08 02:47:58;;;;;;;0.55;0.50;;;18.60;73.90;;;;;;5026538;28;21008;-75
2021/08/08 02:50:24;;;;;;;0.77;0.70;;;18.60;73.90;;;;;;5022728;28;20192;-73
2021/08/08 02:52:53;;;;;;;0.52;0.52;;;18.50;73.30;;;;;;5022930;28;20706;-73
2021/08/08 02:55:21;;;;;;;0.50;0.50;;;18.60;73.50;;;;;;5017561;28;20188;-73
2021/08/08 02:57:47;;;;;;;0.57;0.57;;;18.50;73.70;;;;;;5026651;28;20255;-75
2021/08/08 03:00:13;;;;;;;0.63;0.63;;;18.50;73.60;;;;;;5033668;28;20177;-74
2021/08/08 03:02:39;;;;;;;0.90;0.65;;;18.50;73.80;;;;;;5023071;28;20303;-75
2021/08/08 03:05:05;;;;;;;5.43;0.82;;;18.50;73.70;;;;;;5021685;28;20191;-75
2021/08/08 03:07:31;;;;;;;0.70;0.70;;;18.50;74.10;;;;;;5026307;28;20192;-75
2021/08/08 03:09:56;;;;;;;0.60;0.60;;;18.50;74.10;;;;;;5015141;28;20196;-75
2021/08/08 03:12:22;;;;;;;0.75;0.75;;;18.50;74.30;;;;;;5018415;28;20235;-75
2021/08/08 03:14:48;;;;;;;0.77;0.77;;;18.50;74.10;;;;;;5019264;28;20653;-75
2021/08/08 03:17:13;;;;;;;0.80;0.80;;;18.50;74.50;;;;;;5024470;28;20577;-75
2021/08/08 03:19:39;;;;;;;0.60;0.60;;;18.50;75.30;;;;;;5018808;28;20184;-75
2021/08/08 03:22:05;;;;;;;0.70;0.70;;;18.50;74.90;;;;;;5025255;28;20184;-75
2021/08/08 03:24:31;;;;;;;0.60;0.60;;;18.50;74.10;;;;;;5018195;28;20717;-75
2021/08/08 03:26:57;;;;;;;0.60;0.60;;;18.50;73.70;;;;;;5021268;28;20260;-75
2021/08/08 03:29:22;;;;;;;3.25;0.60;;;18.40;73.40;;;;;;5022213;28;20580;-73
2021/08/08 03:31:48;;;;;;;1.95;0.63;;;18.40;73.70;;;;;;5025914;28;20230;-73
2021/08/08 03:34:14;;;;;;;0.68;0.68;;;18.40;73.90;;;;;;5026341;28;20192;-75
2021/08/08 03:36:40;;;;;;;0.80;0.80;;;18.40;74.30;;;;;;5017193;28;20204;-75
2021/08/08 03:39:05;;;;;;;0.60;0.60;;;18.40;74.40;;;;;;5011987;28;20188;-75
2021/08/08 03:41:31;;;;;;;0.65;0.65;;;18.40;74.40;;;;;;5020857;28;20197;-75
2021/08/08 03:43:56;;;;;;;0.60;0.60;;;18.50;74.30;;;;;;5026737;28;20279;-74
2021/08/08 03:46:22;;;;;;;0.63;0.63;;;18.50;74.40;;;;;;5023741;28;20638;-74
2021/08/08 03:48:48;;;;;;;0.73;0.73;;;18.40;74.80;;;;;;5016107;28;20195;-74
2021/08/08 03:51:13;;;;;;;0.55;0.55;;;18.40;75.10;;;;;;5021687;28;20259;-75
2021/08/08 03:53:39;;;;;;;0.80;0.80;;;18.50;74.90;;;;;;5021444;28;20180;-75
2021/08/08 03:56:06;;;;;;;1.65;0.90;;;18.40;75.20;;;;;;5019355;28;20177;-75
2021/08/08 03:58:32;;;;;;;1.23;0.70;;;18.50;74.80;;;;;;5023219;28;20180;-75
2021/08/08 04:01:00;;;;;;;0.80;0.80;;;18.50;75.10;;;;;;5015690;28;20251;-75
2021/08/08 04:03:26;;;;;;;0.70;0.70;;;18.50;74.90;;;;;;5014524;28;20226;-74
2021/08/08 04:05:51;;;;;;;0.73;0.73;;;18.60;75.10;;;;;;5024031;28;20650;-74
2021/08/08 04:08:17;;;;;;;0.68;0.68;;;18.60;75.20;;;;;;5026082;28;20191;-74
2021/08/08 04:10:43;;;;;;;1.05;0.70;;;18.60;75.20;;;;;;5025801;28;20222;-74
2021/08/08 04:13:08;;;;;;;0.77;0.77;;;18.60;75.40;;;;;;5020592;28;20219;-74
2021/08/08 04:15:34;;;;;;;0.80;0.80;;;18.70;75.70;;;;;;5022290;28;20185;-74
2021/08/08 04:17:59;;;;;;;0.93;0.80;;;18.70;75.60;;;;;;5025572;28;20312;-75
2021/08/08 04:20:25;;;;;;;0.70;0.70;;;18.70;75.80;;;;;;5024917;28;20220;-74
2021/08/08 04:22:51;;;;;;;0.70;0.70;;;18.70;75.70;;;;;;5025134;28;20199;-74
2021/08/08 04:25:16;;;;;;;0.77;0.77;;;18.70;76.10;;;;;;5024763;28;20188;-74
2021/08/08 04:27:42;;;;;;;0.82;0.82;;;18.70;76.00;;;;;;5021584;28;20192;-73
2021/08/08 04:30:08;;;;;;;1.05;0.70;;;18.80;75.90;;;;;;5021132;28;20564;-74
2021/08/08 04:32:34;;;;;;;1.00;0.90;;;18.80;75.90;;;;;;5023418;28;20219;-74
2021/08/08 04:34:59;;;;;;;2.58;1.02;;;18.80;76.00;;;;;;5012746;28;20189;-73
2021/08/08 04:37:25;;;;;;;1.02;1.02;;;18.80;76.00;;;;;;5025055;28;20189;-73
2021/08/08 04:39:51;;;;;;;3.05;0.88;;;18.80;76.10;;;;;;5021616;28;20227;-73
2021/08/08 04:42:17;;;;;;;0.80;0.80;;;18.90;76.00;;;;;;5017224;28;20263;-73
2021/08/08 04:44:42;;;;;;;0.93;0.93;;;18.90;76.00;;;;;;5020019;28;20200;-73
2021/08/08 04:47:08;;;;;;;1.13;0.85;;;18.90;76.20;;;;;;5025016;28;20193;-73
2021/08/08 04:49:34;;;;;;;1.27;0.77;;;18.90;76.50;;;;;;5021149;28;20221;-74
2021/08/08 04:52:02;;;;;;;0.70;0.70;;;18.90;76.20;;;;;;5022714;28;20244;-74
2021/08/08 04:54:28;;;;;;;0.93;0.80;;;19.00;76.10;;;;;;5022231;28;20251;-74
2021/08/08 04:56:53;;;;;;;1.00;0.98;;;19.00;76.00;;;;;;5025963;28;20192;-74
2021/08/08 04:59:19;;;;;;;0.88;0.88;;;19.00;76.00;;;;;;5024518;28;20220;-74
2021/08/08 05:01:45;;;;;;;0.95;0.95;;;19.10;75.90;;;;;;5012609;28;20188;-74
2021/08/08 05:04:10;;;;;;;3.15;1.20;;;19.10;76.00;;;;;;5020301;28;20200;-74
2021/08/08 05:06:36;;;;;;;0.80;0.80;;;19.10;75.80;;;;;;5022878;28;20189;-74
2021/08/08 05:09:02;;;;;;;0.68;0.68;;;19.20;75.80;;;;;;5026866;28;20227;-75
2021/08/08 05:11:28;;;;;;;0.90;0.90;;;19.20;75.70;;;;;;5029039;28;20212;-75
2021/08/08 05:13:54;;;;;;;1.30;0.80;;;19.20;76.00;;;;;;5024042;28;20203;-75
2021/08/08 05:16:19;;;;;;;0.93;0.73;;;19.30;75.90;;;;;;5023815;28;20231;-74
2021/08/08 05:18:45;;;;;;;2.40;0.80;;;19.30;75.80;;;;;;5022921;28;20188;-75
2021/08/08 05:21:11;;;;;;;0.93;0.93;;;19.40;75.80;;;;;;5029975;28;20618;-74
2021/08/08 05:23:37;;;;;;;0.77;0.77;;;19.40;75.60;;;;;;5027329;28;21033;-74
2021/08/08 05:26:03;;;;;;;2.20;1.25;;;19.40;75.80;;;;;;5028538;28;20681;-75
2021/08/08 05:28:29;;;;;;;0.95;0.95;;;19.50;75.80;;;;;;5028681;28;20229;-74
2021/08/08 05:30:55;;;;;;;3.90;1.10;;;19.60;75.90;;;;;;5024075;28;20211;-74
2021/08/08 05:33:20;;;;;;;1.17;1.10;;;19.60;75.80;;;;;;5020696;28;20212;-73
2021/08/08 05:35:46;;;;;;;4.28;1.38;;;19.60;76.20;;;;;;5020961;28;20684;-72
2021/08/08 05:38:12;;;;;;;0.85;0.85;;;19.60;75.50;;;;;;5020710;28;20180;-72
2021/08/08 05:40:38;;;;;;;1.50;0.90;;;19.70;75.40;;;;;;5029447;28;20832;-74
2021/08/08 05:43:03;;;;;;;2.78;1.20;;;19.70;75.10;;;;;;5023219;28;20275;-74
2021/08/08 05:45:29;;;;;;;1.10;1.10;;;19.80;75.00;;;;;;5029265;28;20173;-74
2021/08/08 05:47:58;;;;;;;1.20;1.10;;;19.90;74.90;;;;;;5021078;28;20199;-75
2021/08/08 05:50:23;;;;;;;1.88;1.23;;;19.90;74.80;;;;;;5028721;28;20196;-74
2021/08/08 05:52:51;;;;;;;2.25;0.90;;;19.90;74.80;;;;;;5021253;28;20223;-75
2021/08/08 05:55:18;;;;;;;1.00;1.00;;;20.00;74.50;;;;;;5018665;28;20192;-75
2021/08/08 05:57:44;;;;;;;1.13;1.13;;;20.00;74.10;;;;;;5026613;28;20898;-74
2021/08/08 06:00:11;;;;;;;0.90;0.90;;;20.00;74.10;;;;;;5028815;28;20184;-74
2021/08/08 06:02:38;;;;;;;0.75;0.75;;;20.10;73.90;;;;;;5027952;28;20239;-74
2021/08/08 06:05:05;;;;;;;0.70;0.70;;;20.20;73.80;;;;;;5025638;28;20233;-73
2021/08/08 06:07:30;;;;;;;0.95;0.95;;;20.20;73.50;;;;;;5025457;28;20185;-74
2021/08/08 06:09:56;;;;;;;0.98;0.88;;;20.30;73.40;;;;;;5020204;28;20262;-74
2021/08/08 06:12:23;;;;;;;0.82;0.80;;;20.30;73.30;;;;;;5022736;28;20239;-75
2021/08/08 06:14:48;;;;;;;1.48;1.10;;;20.40;73.20;;;;;;5028679;28;20192;-74
2021/08/08 06:17:14;;;;;;;1.10;1.10;;;20.40;73.20;;;;;;5017530;28;20188;-74
2021/08/08 06:19:40;;;;;;;0.80;0.80;;;20.50;73.10;;;;;;5018051;28;20184;-74
2021/08/08 06:22:05;;;;;;;1.23;1.10;;;20.60;73.10;;;;;;5022307;28;20242;-73
2021/08/08 06:24:31;;;;;;;1.17;0.95;;;20.60;73.00;;;;;;5028293;28;20188;-74
2021/08/08 06:26:57;;;;;;;1.27;1.27;;;20.70;72.90;;;;;;5016171;28;20192;-75
2021/08/08 06:29:22;;;;;;;1.00;1.00;;;20.70;72.70;;;;;;5017025;28;20223;-73
2021/08/08 06:31:48;;;;;;;1.00;1.00;;;20.80;72.30;;;;;;5020001;28;20248;-73
2021/08/08 06:34:14;;;;;;;1.20;0.93;;;20.90;72.40;;;;;;5016606;28;20180;-77
2021/08/08 06:36:39;;;;;;;0.85;0.85;;;20.90;72.40;;;;;;5017113;28;20177;-77
2021/08/08 06:39:06;;;;;;;0.88;0.88;;;21.00;72.40;;;;;;5025448;28;20188;-77
2021/08/08 06:41:32;;;;;;;1.17;1.17;;;21.10;72.30;;;;;;5027108;28;20271;-77
2021/08/08 06:43:58;;;;;;;1.20;1.20;;;21.10;72.10;;;;;;5009728;28;20625;-75
2021/08/08 06:46:24;;;;;;;0.95;0.85;;;21.20;71.90;;;;;;5019936;28;20181;-78
2021/08/08 06:48:51;;;;;;;0.88;0.88;;;21.30;71.90;;;;;;5021739;28;20587;-77
2021/08/08 06:51:17;;;;;;;1.15;1.10;;;21.30;71.70;;;;;;5022954;28;20183;-77
2021/08/08 06:53:43;;;;;;;9.30;1.15;;;21.40;71.70;;;;;;5021734;28;20176;-75
2021/08/08 06:56:09;;;;;;;0.98;0.98;;;21.40;71.80;;;;;;5017089;28;20207;-76
2021/08/08 06:59:21;;;;;;;1.00;1.00;;;21.50;71.00;;;;;;5021617;28;20177;-76
2021/08/08 07:01:47;;;;;;;1.25;1.00;;;21.60;71.50;;;;;;5018059;28;20259;-76
2021/08/08 07:04:13;;;;;;;1.20;1.10;;;21.70;70.90;;;;;;5018765;28;20188;-75
2021/08/08 07:06:39;;;;;;;0.80;0.80;;;21.70;71.20;;;;;;5025332;28;20582;-75
2021/08/08 07:09:07;;;;;;;0.80;0.80;;;21.80;71.10;;;;;;5025061;28;20207;-78
2021/08/08 07:11:34;;;;;;;1.23;1.23;;;21.90;71.00;;;;;;5020719;28;20243;-77
2021/08/08 07:14:01;;;;;;;1.00;1.00;;;21.90;70.30;;;;;;5024419;28;20191;-76
2021/08/08 07:16:26;;;;;;;1.40;1.30;;;22.00;69.80;;;;;;5018648;28;20694;-75
2021/08/08 07:18:52;;;;;;;1.35;1.25;;;22.10;70.00;;;;;;5021663;28;20239;-74
2021/08/08 07:21:18;;;;;;;1.00;1.00;;;22.20;70.20;;;;;;5015190;28;21134;-76
2021/08/08 07:23:43;;;;;;;1.25;1.15;;;22.30;70.00;;;;;;5013675;28;20188;-75
2021/08/08 07:26:09;;;;;;;2.92;1.17;;;22.30;70.00;;;;;;5018130;28;20179;-74
2021/08/08 07:28:35;;;;;;;0.90;0.90;;;22.40;69.30;;;;;;5016264;28;20702;-75
2021/08/08 07:31:00;;;;;;;1.88;0.75;;;22.50;68.90;;;;;;5014765;28;20176;-77
2021/08/08 07:33:26;;;;;;;2.92;1.00;;;22.50;68.60;;;;;;5020132;28;20292;-75
2021/08/08 07:35:52;;;;;;;0.70;0.70;;;22.60;69.00;;;;;;5020546;28;20180;-75
2021/08/08 07:38:18;;;;;;;1.05;1.05;;;22.70;68.60;;;;;;5014943;28;20619;-75
2021/08/08 07:40:43;;;;;;;1.08;1.08;;;22.80;68.50;;;;;;5025957;28;20191;-77
2021/08/08 07:43:10;;;;;;;1.10;0.90;;;22.90;68.40;;;;;;5014380;28;20267;-76
2021/08/08 07:45:36;;;;;;;1.45;0.80;;;22.90;68.30;;;;;;5019487;28;20785;-77
2021/08/08 07:48:02;;;;;;;1.08;1.02;;;23.00;68.30;;;;;;5018305;28;20184;-77
2021/08/08 07:50:28;;;;;;;1.20;1.10;;;23.10;67.80;;;;;;5010059;28;20177;-77
2021/08/08 07:52:54;;;;;;;0.80;0.80;;;23.10;67.40;;;;;;5021151;28;20310;-77
2021/08/08 07:55:21;;;;;;;0.77;0.77;;;23.30;67.30;;;;;;5026536;28;20242;-77
2021/08/08 07:57:46;;;;;;;1.23;1.23;;;23.40;67.80;;;;;;5020268;28;20176;-77
2021/08/08 08:00:12;;;;;;;0.90;0.90;;;23.50;67.20;;;;;;5020339;28;20249;-76
2021/08/08 08:02:38;;;;;;;1.50;1.50;;;23.50;67.30;;;;;;5021293;28;20664;-77
2021/08/08 08:05:05;;;;;;;1.13;1.13;;;23.60;67.00;;;;;;5025391;28;20263;-75
2021/08/08 08:07:31;;;;;;;1.15;1.10;;;23.70;67.00;;;;;;5021093;28;20212;-75
2021/08/08 08:09:57;;;;;;;1.30;1.23;;;23.80;67.00;;;;;;5022807;28;20230;-74
2021/08/08 08:12:22;;;;;;;2.05;1.23;;;23.90;66.30;;;;;;5016130;28;20224;-74
2021/08/08 08:14:48;;;;;;;1.05;1.00;;;24.00;65.80;;;;;;5019983;28;20193;-74
2021/08/08 08:17:14;;;;;;;0.90;0.90;;;24.10;65.60;;;;;;5016913;28;20192;-74
2021/08/08 08:19:39;;;;;;;1.48;1.48;;;24.20;66.10;;;;;;5018657;28;20185;-73
2021/08/08 08:22:05;;;;;;;0.98;0.98;;;24.30;66.00;;;;;;5021364;28;20673;-76
2021/08/08 08:24:31;;;;;;;1.38;1.35;;;24.30;64.80;;;;;;5014017;28;20189;-75
2021/08/08 08:26:56;;;;;;;1.02;1.02;;;24.40;65.00;;;;;;5011455;28;20180;-75
2021/08/08 08:29:22;;;;;;;1.30;1.30;;;24.50;65.10;;;;;;5005674;28;20268;-75
2021/08/08 08:31:48;;;;;;;1.20;1.20;;;24.60;64.80;;;;;;5011253;28;20659;-75
2021/08/08 08:34:14;;;;;;;1.10;1.00;;;24.70;64.80;;;;;;5013002;28;20189;-75
2021/08/08 08:36:39;;;;;;;1.02;1.02;;;24.80;64.40;;;;;;5023221;28;20184;-79
2021/08/08 08:39:06;;;;;;;0.90;0.90;;;24.90;64.40;;;;;;5021202;28;20200;-78
2021/08/08 08:41:32;;;;;;;1.60;1.23;;;25.00;63.90;;;;;;5020472;28;20189;-75
2021/08/08 08:43:59;;;;;;;1.08;1.08;;;25.10;63.60;;;;;;5021103;28;20207;-74
2021/08/08 08:46:25;;;;;;;1.20;1.17;;;25.20;63.50;;;;;;5026835;28;20194;-73
2021/08/08 08:48:55;;;;;;;2.40;0.85;;;25.30;63.50;;;;;;5024218;28;20187;-74
2021/08/08 08:51:27;;;;;;;1.00;1.00;;;25.40;63.20;;;;;;5028607;28;20180;-75
2021/08/08 08:53:54;;;;;;;1.33;1.20;;;25.60;62.70;;;;;;5019681;28;20195;-72
2021/08/08 08:56:20;;;;;;;0.90;0.90;;;25.70;62.80;;;;;;5029619;28;20287;-72
2021/08/08 08:58:46;;;;;;;1.13;1.05;;;25.80;62.30;;;;;;5020869;28;20186;-74
2021/08/08 09:01:12;;;;;;;1.17;1.10;;;25.90;62.50;;;;;;5029336;28;20558;-73
2021/08/08 09:03:38;;;;;;;0.80;0.80;;;26.00;62.70;;;;;;5030071;28;20275;-73
2021/08/08 09:06:04;;;;;;;1.20;1.20;;;26.20;62.70;;;;;;5029794;28;20712;-75
2021/08/08 09:08:30;;;;;;;0.85;0.85;;;26.30;62.10;;;;;;5021487;28;20640;-75
2021/08/08 09:11:07;;;;;;;1.10;1.10;;;26.50;61.80;;;;;;5030471;28;20173;-75
2021/08/08 09:13:53;;;;;;;0.80;0.80;;;26.60;61.40;;;;;;5037683;28;20231;-76
2021/08/08 09:16:21;;;;;;;1.40;1.30;;;26.80;62.00;;;;;;5024359;28;20636;-76
2021/08/08 09:18:53;;;;;;;0.77;0.77;;;26.90;61.30;;;;;;5032539;28;20708;-74
2021/08/08 09:21:19;;;;;;;1.20;1.20;;;27.10;60.50;;;;;;5030310;28;20212;-79
2021/08/08 09:23:53;;;;;;;0.77;0.77;;;27.30;60.60;;;;;;5027637;28;20173;-80
2021/08/08 09:26:29;;;;;;;0.93;0.93;;;27.50;59.80;;;;;;5025400;28;20274;-78
2021/08/08 09:29:05;;;;;;;2.13;0.90;;;27.60;59.50;;;;;;5026600;28;20235;-79
2021/08/08 09:31:38;;;;;;;1.20;1.20;;;27.80;59.10;;;;;;5024372;28;20188;-78
2021/08/08 09:34:04;;;;;;;1.08;1.08;;;28.10;58.40;;;;;;5026870;28;20196;-74
2021/08/08 09:36:39;;;;;;;1.20;1.20;;;28.30;58.50;;;;;;5015413;28;20605;-74
2021/08/08 09:39:05;;;;;;;1.58;1.10;;;28.60;56.60;;;;;;5014129;28;20184;-75
2021/08/08 09:41:32;;;;;;;2.42;1.08;;;28.80;56.90;;;;;;5019011;28;20199;-75
2021/08/08 09:44:10;;;;;;;1.02;1.02;;;29.20;57.50;;;;;;5024663;28;20176;-75
2021/08/08 09:46:36;;;;;;;1.08;1.08;;;29.60;56.80;;;;;;5019670;28;21014;-74
2021/08/08 09:49:14;;;;;;;1.05;1.05;;;30.00;56.10;;;;;;5026718;28;20187;-76
2021/08/08 09:51:50;;;;;;;2.25;1.25;;;30.60;55.10;;;;;;5026968;28;20220;-76
2021/08/08 09:54:16;;;;;;;0.90;0.90;;;31.10;54.00;;;;;;5023829;28;20227;-76
2021/08/08 09:56:56;;;;;;;2.50;1.13;;;31.70;52.30;;;;;;5021871;28;20183;-75
2021/08/08 09:59:22;;;;;;;0.88;0.88;;;32.30;52.40;;;;;;5021591;28;20180;-76
2021/08/08 10:01:47;;;;;;;1.10;1.10;;;32.90;50.50;;;;;;5027342;28;20188;-76
2021/08/08 10:04:13;;;;;;;4.25;1.27;;;33.60;49.20;;;;;;5028093;28;20179;-76
2021/08/08 10:06:40;;;;;;;1.20;1.20;;;34.20;48.40;;;;;;5028944;28;20255;-75
2021/08/08 10:09:10;;;;;;;1.73;1.30;;;34.80;47.10;;;;;;5016428;28;20737;-75
2021/08/08 10:11:36;;;;;;;2.78;1.35;;;35.40;48.30;;;;;;5024018;28;20950;-75
2021/08/08 10:14:03;;;;;;;1.40;1.00;;;36.10;47.60;;;;;;5025473;28;20192;-75
2021/08/08 10:16:36;;;;;;;1.35;1.17;;;36.80;46.70;;;;;;5024044;28;20181;-74
2021/08/08 10:19:03;;;;;;;1.05;1.05;;;37.50;44.80;;;;;;5017351;28;20229;-76
2021/08/08 10:21:31;;;;;;;0.70;0.70;;;38.10;44.30;;;;;;5027969;28;20262;-76
2021/08/08 10:24:03;;;;;;;2.08;0.80;;;38.70;43.50;;;;;;5022310;28;20833;-77
2021/08/08 10:26:30;;;;;;;0.70;0.70;;;39.30;43.10;;;;;;5019789;28;20205;-76
2021/08/08 10:28:57;;;;;;;0.75;0.75;;;39.80;43.20;;;;;;5011361;28;20263;-75
2021/08/08 10:31:24;;;;;;;0.70;0.70;;;40.40;42.00;;;;;;5022241;28;20265;-76
2021/08/08 10:33:52;;;;;;;1.23;1.10;;;40.90;41.40;;;;;;5016833;28;20660;-75
2021/08/08 10:36:18;;;;;;;0.68;0.68;;;41.60;41.90;;;;;;5011997;28;20192;-76
2021/08/08 10:38:44;;;;;;;0.80;0.75;;;42.10;40.60;;;;;;5019336;28;20192;-73
2021/08/08 10:41:11;;;;;;;1.90;0.85;;;42.40;41.10;;;;;;5021660;28;20250;-77
2021/08/08 10:43:37;;;;;;;0.90;0.90;;;42.60;42.50;;;;;;5025345;28;20297;-77
2021/08/08 10:46:09;;;;;;;1.15;0.90;;;42.70;41.30;;;;;;5026695;28;20637;-77
2021/08/08 10:48:36;;;;;;;0.90;0.90;;;42.90;40.00;;;;;;5020703;28;20186;-77
2021/08/08 10:51:02;;;;;;;0.93;0.93;;;43.20;40.60;;;;;;5016034;28;20204;-77
2021/08/08 10:53:31;;;;;;;0.80;0.80;;;43.50;39.40;;;;;;5016023;28;20732;-77
2021/08/08 10:56:11;;;;;;;1.00;1.00;;;43.60;39.80;;;;;;5025882;28;20261;-77
2021/08/08 10:58:41;;;;;;;0.80;0.80;;;43.90;38.10;;;;;;5026512;28;20636;-77
2021/08/08 11:01:20;;;;;;;0.80;0.80;;;44.20;39.80;;;;;;5024036;28;20188;-78
2021/08/08 11:03:56;;;;;;;0.85;0.85;;;44.50;38.10;;;;;;5026152;28;20266;-77
2021/08/08 11:06:26;;;;;;;1.05;1.05;;;44.60;40.20;;;;;;5026495;28;20182;-77
2021/08/08 11:08:54;;;;;;;0.90;0.90;;;44.80;38.50;;;;;;5022019;28;20599;-77
2021/08/08 11:11:27;;;;;;;1.50;1.00;;;45.20;38.40;;;;;;5025157;28;20176;-77
2021/08/08 11:13:54;;;;;;;0.85;0.85;;;45.60;38.20;;;;;;5026910;28;20230;-77
2021/08/08 11:16:20;;;;;;;1.23;1.10;;;45.90;37.70;;;;;;4995883;28;20305;-77
2021/08/08 11:18:56;;;;;;;1.20;1.20;;;46.20;37.80;;;;;;4994822;28;20181;-76
2021/08/08 11:21:25;;;;;;;1.00;1.00;;;46.20;37.80;;;;;;5004734;28;20176;-75
2021/08/08 11:23:55;;;;;;;0.80;0.80;;;46.30;37.30;;;;;;4994832;28;20191;-75
2021/08/08 11:26:22;;;;;;;2.15;0.98;;;46.40;37.70;;;;;;4999173;28;20211;-75
2021/08/08 11:28:58;;;;;;;1.92;1.10;;;46.60;36.50;;;;;;5003570;28;20184;-74
2021/08/08 11:31:27;;;;;;;1.20;1.10;;;46.70;37.50;;;;;;4998881;28;20280;-75
2021/08/08 11:34:01;;;;;;;0.93;0.93;;;46.90;37.50;;;;;;5007403;28;20179;-75
2021/08/08 11:36:39;;;;;;;1.05;1.05;;;47.00;36.00;;;;;;5007871;28;20195;-75
2021/08/08 11:39:11;;;;;;;1.10;1.10;;;47.40;36.70;;;;;;5007603;28;20601;-75
2021/08/08 11:41:38;;;;;;;1.10;1.10;;;47.60;37.50;;;;;;5007360;28;20235;-75
2021/08/08 11:44:10;;;;;;;0.82;0.82;;;47.90;35.00;;;;;;4998385;28;20180;-75
2021/08/08 11:46:38;;;;;;;1.00;1.00;;;48.00;37.10;;;;;;5005978;28;20215;-75
2021/08/08 11:49:21;;;;;;;1.15;1.02;;;48.30;36.80;;;;;;5007606;28;20172;-74
2021/08/08 11:52:03;;;;;;;0.80;0.80;;;48.70;35.70;;;;;;5007071;28;20654;-75
2021/08/08 11:54:34;;;;;;;1.00;1.00;;;49.10;34.80;;;;;;5008258;28;20552;-75
2021/08/08 11:57:01;;;;;;;2.97;0.75;;;49.30;36.30;;;;;;5004616;28;20572;-75
2021/08/08 11:59:31;;;;;;;0.85;0.85;;;49.50;35.10;;;;;;5005931;28;20724;-75
2021/08/08 12:02:01;;;;;;;0.80;0.80;;;49.70;35.90;;;;;;4996182;28;20189;-74
2021/08/08 12:04:28;;;;;;;1.20;1.20;;;49.90;36.50;;;;;;5003784;28;20204;-75
2021/08/08 12:06:54;;;;;;;1.08;1.02;;;49.90;35.00;;;;;;5007105;28;20182;-74
2021/08/08 12:09:21;;;;;;;1.15;1.00;;;50.10;34.70;;;;;;5007099;28;20303;-75
2021/08/08 12:11:51;;;;;;;3.38;0.75;;;50.40;35.70;;;;;;5011241;28;20231;-75
2021/08/08 12:14:27;;;;;;;0.77;0.77;;;50.40;34.10;;;;;;5011306;28;20195;-75
2021/08/08 12:17:00;;;;;;;0.88;0.88;;;50.50;35.10;;;;;;5007046;28;20268;-76
2021/08/08 12:19:30;;;;;;;1.00;1.00;;;50.50;34.30;;;;;;5020959;28;20247;-75
2021/08/08 12:22:02;;;;;;;1.00;1.00;;;50.60;35.10;;;;;;5007032;28;20192;-75
2021/08/08 12:24:36;;;;;;;1.02;1.02;;;50.70;34.70;;;;;;5002287;28;20184;-75
2021/08/08 12:27:03;;;;;;;2.47;0.95;;;50.80;34.30;;;;;;5007744;28;20176;-74
2021/08/08 12:29:34;;;;;;;1.00;1.00;;;50.90;35.60;;;;;;5008426;28;20684;-74
2021/08/08 12:32:18;;;;;;;1.20;1.20;;;50.90;35.50;;;;;;5007100;28;20671;-74
2021/08/08 12:34:45;;;;;;;3.22;0.90;;;50.70;33.60;;;;;;5005972;28;20173;-74
2021/08/08 12:37:13;;;;;;;0.80;0.80;;;50.60;34.30;;;;;;5009134;28;20677;-73
2021/08/08 12:39:42;;;;;;;1.17;1.17;;;50.50;34.50;;;;;;5000682;28;20282;-73
2021/08/08 12:42:20;;;;;;;2.60;1.10;;;50.60;33.50;;;;;;5005732;28;20188;-74
2021/08/08 12:44:47;;;;;;;2.80;0.98;;;50.60;33.40;;;;;;5009677;28;20660;-74
2021/08/08 12:47:25;;;;;;;1.02;1.02;;;50.70;34.50;;;;;;5003324;28;20185;-73
2021/08/08 12:49:51;;;;;;;0.90;0.90;;;50.80;34.00;;;;;;5007659;28;20180;-75